Time;durP1;ratioP1;P1;durP2;ratioP2;P2;SDS_P1;SDS_P2;PMS_P1;PMS_P2;Temp;Humidity;BMP_temperature;BMP_pressure;BME280_temperature;BME280_humidity;BME280_pressure;Samples;Min_cycle;Max_cycle;Signal;HPM_P1;HPM_P2
2022/12/09 00:02:05;;;;;;;14.98;9.80;;;;;;;;;;5026425;28;20076;-76
2022/12/09 00:04:34;;;;;;;16.00;11.07;;;;;;;;;;5024170;28;20025;-77
2022/12/09 00:07:00;;;;;;;14.55;10.65;;;;;;;;;;5038522;28;20068;-76
2022/12/09 00:09:26;;;;;;;17.77;11.10;;;;;;;;;;5050154;28;20494;-76
2022/12/09 00:11:52;;;;;;;18.67;11.45;;;;;;;;;;5038591;28;20029;-75
2022/12/09 00:14:18;;;;;;;14.68;10.35;;;;;;;;;;5054052;28;20525;-76
2022/12/09 00:16:44;;;;;;;19.10;11.85;;;;;;;;;;5042064;28;20025;-75
2022/12/09 00:19:10;;;;;;;15.07;10.70;;;;;;;;;;5048693;28;20025;-76
2022/12/09 00:21:36;;;;;;;14.73;10.27;;;;;;;;;;5050193;28;20098;-75
2022/12/09 00:24:10;;;;;;;18.63;11.35;;;;;;;;;;5043274;28;20086;-76
2022/12/09 00:26:42;;;;;;;22.23;12.43;;;;;;;;;;5024661;28;20044;-77
2022/12/09 00:29:11;;;;;;;17.23;12.30;;;;;;;;;;5048603;28;20076;-77
2022/12/09 00:31:37;;;;;;;16.92;11.27;;;;;;;;;;5037033;28;20669;-77
2022/12/09 00:34:05;;;;;;;16.20;10.32;;;;;;;;;;5029530;28;20052;-77
2022/12/09 00:36:31;;;;;;;16.85;11.23;;;;;;;;;;5032364;28;20030;-77
2022/12/09 00:39:04;;;;;;;16.17;11.35;;;;;;;;;;5029305;28;20033;-76
2022/12/09 00:41:30;;;;;;;16.25;10.75;;;;;;;;;;5034255;28;20025;-75
2022/12/09 00:43:58;;;;;;;14.68;10.35;;;;;;;;;;5020971;28;20037;-76
2022/12/09 00:46:25;;;;;;;15.80;11.00;;;;;;;;;;5026319;28;20018;-76
2022/12/09 00:48:51;;;;;;;14.98;10.75;;;;;;;;;;5028143;28;20487;-76
2022/12/09 00:51:19;;;;;;;17.05;11.88;;;;;;;;;;5053791;28;20104;-76
2022/12/09 00:53:46;;;;;;;16.70;10.48;;;;;;;;;;5037123;28;20029;-76
2022/12/09 00:56:12;;;;;;;15.55;11.48;;;;;;;;;;5053394;28;20035;-76
2022/12/09 00:58:44;;;;;;;16.30;11.25;;;;;;;;;;5035600;28;20479;-77
2022/12/09 01:01:15;;;;;;;18.95;12.85;;;;;;;;;;5051916;28;20028;-77
2022/12/09 01:03:41;;;;;;;17.33;11.40;;;;;;;;;;5033289;28;20021;-77
2022/12/09 01:06:09;;;;;;;17.17;11.52;;;;;;;;;;5025796;28;20060;-77
2022/12/09 01:08:37;;;;;;;16.83;11.23;;;;;;;;;;5038759;28;20029;-77
2022/12/09 01:11:22;;;;;;;17.33;12.50;;;;;;;;;;5053309;28;20021;-76
2022/12/09 01:13:48;;;;;;;16.95;10.90;;;;;;;;;;5053844;28;20017;-76
2022/12/09 01:16:19;;;;;;;19.85;12.70;;;;;;;;;;5055379;28;20390;-76
2022/12/09 01:18:45;;;;;;;12.65;8.80;;;;;;;;;;5041503;28;20031;-76
2022/12/09 01:21:20;;;;;;;17.48;11.70;;;;;;;;;;5051709;28;20029;-78
2022/12/09 01:23:52;;;;;;;18.35;12.23;;;;;;;;;;5065899;28;20052;-76
2022/12/09 01:26:18;;;;;;;17.95;13.48;;;;;;;;;;5055097;28;20017;-78
2022/12/09 01:28:51;;;;;;;17.77;11.95;;;;;;;;;;5049337;28;20036;-80
2022/12/09 01:31:23;;;;;;;19.15;12.40;;;;;;;;;;5041630;28;20029;-78
2022/12/09 01:33:50;;;;;;;17.73;12.68;;;;;;;;;;5035779;28;20091;-76
2022/12/09 01:36:18;;;;;;;16.05;11.43;;;;;;;;;;5016063;28;20495;-76
2022/12/09 01:38:45;;;;;;;17.25;12.07;;;;;;;;;;5016390;28;20562;-76
2022/12/09 01:41:12;;;;;;;18.08;11.90;;;;;;;;;;5050867;28;20031;-76
2022/12/09 01:43:38;;;;;;;18.45;12.43;;;;;;;;;;5037884;28;20037;-76
2022/12/09 01:46:04;;;;;;;18.35;12.45;;;;;;;;;;5046065;28;20064;-77
2022/12/09 01:48:34;;;;;;;18.38;12.43;;;;;;;;;;5024475;28;20025;-76
2022/12/09 01:51:05;;;;;;;19.00;12.10;;;;;;;;;;5052378;28;20029;-76
2022/12/09 01:53:36;;;;;;;16.20;9.80;;;;;;;;;;5017649;28;20021;-77
2022/12/09 01:56:02;;;;;;;;;;;;;;;;;;5028769;28;20029;-77
2022/12/09 01:58:38;;;;;;;16.88;11.93;;;;;;;;;;5041728;28;20434;-75
2022/12/09 02:01:07;;;;;;;18.05;11.85;;;;;;;;;;5050692;28;20025;-77
2022/12/09 02:03:37;;;;;;;19.48;12.30;;;;;;;;;;5017594;28;20557;-74
2022/12/09 02:06:04;;;;;;;20.38;12.32;;;;;;;;;;5027496;28;20034;-74
2022/12/09 02:08:32;;;;;;;16.63;11.60;;;;;;;;;;5032033;28;20622;-75
2022/12/09 02:11:04;;;;;;;17.58;12.45;;;;;;;;;;5045650;28;20472;-74
2022/12/09 02:13:52;;;;;;;17.20;12.20;;;;;;;;;;5050073;28;20017;-75
2022/12/09 02:16:21;;;;;;;17.90;11.43;;;;;;;;;;5022469;28;20023;-74
2022/12/09 02:19:11;;;;;;;21.77;13.02;;;;;;;;;;5033930;28;20021;-75
2022/12/09 02:21:41;;;;;;;17.17;11.90;;;;;;;;;;5035201;28;20491;-75
2022/12/09 02:24:14;;;;;;;16.60;11.90;;;;;;;;;;5044706;28;20053;-76
2022/12/09 02:26:43;;;;;;;17.13;12.07;;;;;;;;;;5024886;28;20040;-74
2022/12/09 02:29:11;;;;;;;17.83;13.02;;;;;;;;;;5051480;28;20079;-75
2022/12/09 02:32:03;;;;;;;19.85;12.15;;;;;;;;;;5017320;28;20079;-76
2022/12/09 02:34:34;;;;;;;20.33;13.18;;;;;;;;;;5041947;28;20021;-76
2022/12/09 02:37:00;;;;;;;;;;;;;;;;;;5045828;28;20075;-75
2022/12/09 02:39:38;;;;;;;16.63;11.43;;;;;;;;;;5017225;28;19905;-76
2022/12/09 02:42:06;;;;;;;18.95;12.68;;;;;;;;;;5014311;28;20112;-75
2022/12/09 02:44:38;;;;;;;17.77;12.40;;;;;;;;;;5024147;28;20029;-75
2022/12/09 02:47:06;;;;;;;19.05;12.60;;;;;;;;;;5036495;28;20022;-74
2022/12/09 02:49:33;;;;;;;19.00;12.30;;;;;;;;;;5030214;28;20028;-77
2022/12/09 02:52:00;;;;;;;20.08;13.68;;;;;;;;;;5038390;28;20494;-76
2022/12/09 02:54:28;;;;;;;19.55;12.30;;;;;;;;;;5037621;28;20024;-75
2022/12/09 02:57:10;;;;;;;17.40;12.05;;;;;;;;;;5024249;28;20022;-75
2022/12/09 02:59:36;;;;;;;17.80;12.23;;;;;;;;;;5036727;28;20526;-76
2022/12/09 03:02:20;;;;;;;19.00;12.32;;;;;;;;;;5048937;28;20041;-76
2022/12/09 03:05:06;;;;;;;19.55;13.40;;;;;;;;;;5029570;28;20390;-76
2022/12/09 03:07:35;;;;;;;19.48;12.13;;;;;;;;;;5035223;28;20568;-75
2022/12/09 03:10:05;;;;;;;21.30;14.43;;;;;;;;;;5034671;28;20408;-76
2022/12/09 03:12:33;;;;;;;19.77;13.98;;;;;;;;;;5027434;28;20048;-78
2022/12/09 03:14:59;;;;;;;21.70;13.77;;;;;;;;;;5037186;28;20037;-76
2022/12/09 03:17:34;;;;;;;18.27;13.32;;;;;;;;;;5036055;28;20078;-76
2022/12/09 03:20:08;;;;;;;19.92;13.55;;;;;;;;;;5023285;28;20121;-73
2022/12/09 03:22:35;;;;;;;22.63;14.80;;;;;;;;;;5027136;28;20048;-76
2022/12/09 03:25:21;;;;;;;18.63;13.35;;;;;;;;;;5034549;28;20025;-75
2022/12/09 03:27:55;;;;;;;24.38;14.70;;;;;;;;;;5039141;28;20100;-76
2022/12/09 03:30:31;;;;;;;24.73;15.98;;;;;;;;;;5028535;28;20021;-77
2022/12/09 03:33:06;;;;;;;22.58;15.77;;;;;;;;;;5031281;28;20594;-76
2022/12/09 03:35:39;;;;;;;22.10;15.05;;;;;;;;;;5018179;28;20052;-76
2022/12/09 03:38:07;;;;;;;21.30;13.60;;;;;;;;;;5019737;28;20025;-75
2022/12/09 03:40:37;;;;;;;21.70;14.75;;;;;;;;;;5045154;28;20060;-77
2022/12/09 03:43:07;;;;;;;20.05;14.82;;;;;;;;;;5040163;28;20025;-76
2022/12/09 03:45:34;;;;;;;22.58;14.85;;;;;;;;;;5050389;28;20040;-76
2022/12/09 03:48:03;;;;;;;22.65;13.93;;;;;;;;;;5039987;28;20096;-76
2022/12/09 03:50:34;;;;;;;21.73;13.88;;;;;;;;;;5028708;28;20022;-76
2022/12/09 03:53:06;;;;;;;19.02;14.05;;;;;;;;;;5052325;28;20419;-76
2022/12/09 03:55:32;;;;;;;22.33;14.73;;;;;;;;;;5037761;28;20039;-75
2022/12/09 03:58:02;;;;;;;21.33;14.93;;;;;;;;;;5040156;28;20024;-75
2022/12/09 04:00:32;;;;;;;23.63;16.60;;;;;;;;;;5052853;28;20455;-75
2022/12/09 04:02:58;;;;;;;22.17;14.52;;;;;;;;;;5040572;28;20061;-75
2022/12/09 04:05:25;;;;;;;22.73;15.77;;;;;;;;;;5051048;28;20041;-76
2022/12/09 04:07:51;;;;;;;20.75;14.13;;;;;;;;;;5021509;28;20047;-77
2022/12/09 04:10:19;;;;;;;20.95;14.88;;;;;;;;;;5030172;28;20021;-76
2022/12/09 04:12:47;;;;;;;21.55;14.52;;;;;;;;;;5048781;28;20025;-77
2022/12/09 04:15:16;;;;;;;23.48;16.00;;;;;;;;;;5021345;28;20025;-76
2022/12/09 04:17:47;;;;;;;22.40;15.15;;;;;;;;;;5019671;28;20025;-76
2022/12/09 04:20:18;;;;;;;21.90;14.95;;;;;;;;;;5046990;28;20038;-76
2022/12/09 04:22:45;;;;;;;20.92;14.52;;;;;;;;;;5045702;28;20091;-74
2022/12/09 04:25:15;;;;;;;23.10;15.95;;;;;;;;;;5053385;28;20108;-75
2022/12/09 04:27:41;;;;;;;23.13;15.45;;;;;;;;;;5036846;28;20059;-76
2022/12/09 04:30:15;;;;;;;20.58;14.73;;;;;;;;;;5047065;28;20030;-76
2022/12/09 04:32:43;;;;;;;22.35;15.10;;;;;;;;;;5045267;28;20075;-73
2022/12/09 04:35:09;;;;;;;22.65;15.25;;;;;;;;;;5020369;28;20029;-76
2022/12/09 04:37:36;;;;;;;19.83;14.60;;;;;;;;;;5052258;28;20024;-75
2022/12/09 04:40:04;;;;;;;22.10;15.38;;;;;;;;;;5035765;28;20048;-76
2022/12/09 04:42:30;;;;;;;25.73;16.27;;;;;;;;;;5025766;28;20034;-75
2022/12/09 04:44:59;;;;;;;21.35;14.93;;;;;;;;;;5028826;28;20564;-76
2022/12/09 04:47:25;;;;;;;25.90;15.07;;;;;;;;;;5034348;28;20487;-75
2022/12/09 04:49:51;;;;;;;23.60;15.95;;;;;;;;;;5015684;28;20047;-76
2022/12/09 04:52:18;;;;;;;21.77;14.90;;;;;;;;;;5023693;28;20025;-75
2022/12/09 04:54:57;;;;;;;21.48;14.30;;;;;;;;;;5035519;28;20082;-76
2022/12/09 04:57:31;;;;;;;21.23;14.68;;;;;;;;;;5052652;28;20064;-76
2022/12/09 05:00:02;;;;;;;21.67;14.70;;;;;;;;;;5021340;28;20479;-75
2022/12/09 05:02:30;;;;;;;22.55;14.68;;;;;;;;;;5053389;28;20033;-75
2022/12/09 05:04:56;;;;;;;22.45;15.18;;;;;;;;;;5021508;28;20080;-78
2022/12/09 05:07:25;;;;;;;21.52;15.00;;;;;;;;;;5032083;28;20029;-76
2022/12/09 05:09:59;;;;;;;23.48;14.85;;;;;;;;;;5030442;28;20120;-75
2022/12/09 05:12:25;;;;;;;25.45;15.60;;;;;;;;;;5041891;28;20100;-75
2022/12/09 05:14:54;;;;;;;23.48;15.57;;;;;;;;;;5021168;28;20176;-75
2022/12/09 05:17:20;;;;;;;25.25;16.20;;;;;;;;;;5031352;28;20025;-75
2022/12/09 05:19:49;;;;;;;26.25;17.15;;;;;;;;;;5036386;28;20028;-75
2022/12/09 05:22:16;;;;;;;24.58;15.75;;;;;;;;;;5026608;28;20031;-76
2022/12/09 05:24:48;;;;;;;24.02;16.02;;;;;;;;;;5014738;28;20057;-74
2022/12/09 05:27:19;;;;;;;24.10;16.17;;;;;;;;;;5030969;28;20449;-76
2022/12/09 05:29:46;;;;;;;28.65;18.02;;;;;;;;;;5036289;28;20021;-75
2022/12/09 05:32:16;;;;;;;26.75;17.38;;;;;;;;;;5027079;28;20025;-75
2022/12/09 05:34:47;;;;;;;25.25;17.20;;;;;;;;;;5044027;28;20120;-74
2022/12/09 05:37:21;;;;;;;24.30;16.85;;;;;;;;;;5034321;28;20431;-76
2022/12/09 05:39:47;;;;;;;26.02;16.55;;;;;;;;;;5018665;28;20490;-76
2022/12/09 05:42:16;;;;;;;27.30;17.20;;;;;;;;;;5026770;28;20140;-76
2022/12/09 05:44:42;;;;;;;26.10;16.38;;;;;;;;;;5025499;28;20045;-76
2022/12/09 05:47:08;;;;;;;25.88;16.83;;;;;;;;;;5019548;28;20075;-76
2022/12/09 05:49:40;;;;;;;24.80;16.45;;;;;;;;;;5051183;28;20021;-75
2022/12/09 05:52:06;;;;;;;24.67;16.05;;;;;;;;;;5034675;28;20052;-75
2022/12/09 05:54:34;;;;;;;25.13;16.38;;;;;;;;;;5024594;28;20107;-75
2022/12/09 05:57:02;;;;;;;26.80;16.65;;;;;;;;;;5028197;28;20487;-75
2022/12/09 05:59:28;;;;;;;25.40;16.25;;;;;;;;;;5034191;28;20497;-75
2022/12/09 06:01:55;;;;;;;24.50;16.02;;;;;;;;;;5029468;28;20030;-76
2022/12/09 06:04:30;;;;;;;23.17;15.50;;;;;;;;;;5040888;28;20036;-76
2022/12/09 06:06:59;;;;;;;25.05;17.45;;;;;;;;;;5052063;28;20029;-77
2022/12/09 06:09:25;;;;;;;22.60;15.70;;;;;;;;;;5035552;28;20502;-77
2022/12/09 06:11:51;;;;;;;25.48;16.02;;;;;;;;;;5029707;28;20032;-77
2022/12/09 06:14:23;;;;;;;23.60;14.90;;;;;;;;;;5022969;28;20066;-75
2022/12/09 06:16:52;;;;;;;23.33;15.65;;;;;;;;;;5034178;28;20124;-76
2022/12/09 06:19:20;;;;;;;22.70;15.27;;;;;;;;;;5018637;28;20037;-77
2022/12/09 06:21:46;;;;;;;26.75;16.90;;;;;;;;;;5038910;28;20028;-76
2022/12/09 06:24:15;;;;;;;24.00;15.80;;;;;;;;;;5058104;28;20395;-76
2022/12/09 06:26:46;;;;;;;23.27;15.55;;;;;;;;;;5074832;28;20029;-78
2022/12/09 06:29:14;;;;;;;23.67;15.70;;;;;;;;;;5057498;28;20048;-77
2022/12/09 06:31:42;;;;;;;23.90;16.08;;;;;;;;;;5076480;28;20017;-75
2022/12/09 06:34:13;;;;;;;24.77;16.02;;;;;;;;;;5038980;28;20036;-77
2022/12/09 06:36:42;;;;;;;23.08;14.85;;;;;;;;;;5025515;28;20032;-74
2022/12/09 06:39:15;;;;;;;24.30;15.50;;;;;;;;;;5013689;28;20033;-76
2022/12/09 06:41:54;;;;;;;25.50;16.40;;;;;;;;;;5029264;28;20038;-77
2022/12/09 06:44:20;;;;;;;25.85;16.13;;;;;;;;;;5032524;28;20026;-74
2022/12/09 06:46:46;;;;;;;30.30;16.02;;;;;;;;;;5088113;23;20049;-77
2022/12/09 06:49:12;;;;;;;24.48;15.68;;;;;;;;;;5055272;28;20021;-76
2022/12/09 06:51:39;;;;;;;24.48;16.02;;;;;;;;;;5036417;28;20075;-74
2022/12/09 06:54:08;;;;;;;26.13;16.48;;;;;;;;;;5047771;28;20444;-77
2022/12/09 06:56:34;;;;;;;27.73;15.95;;;;;;;;;;5032978;28;20116;-76
2022/12/09 06:59:01;;;;;;;30.10;17.27;;;;;;;;;;5060651;28;20151;-77
2022/12/09 07:01:29;;;;;;;23.42;15.55;;;;;;;;;;5051154;28;20021;-77
2022/12/09 07:04:00;;;;;;;24.30;16.25;;;;;;;;;;5033381;28;20117;-77
2022/12/09 07:06:42;;;;;;;24.42;16.35;;;;;;;;;;5058329;28;20475;-76
2022/12/09 07:09:13;;;;;;;30.75;16.80;;;;;;;;;;5040282;28;20036;-76
2022/12/09 07:11:41;;;;;;;23.25;14.77;;;;;;;;;;5042058;28;20017;-76
2022/12/09 07:14:10;;;;;;;20.40;13.85;;;;;;;;;;5057296;28;20112;-76
2022/12/09 07:16:39;;;;;;;20.48;12.80;;;;;;;;;;5033096;28;20029;-76
2022/12/09 07:19:05;;;;;;;24.95;13.75;;;;;;;;;;5051180;28;20095;-76
2022/12/09 07:21:34;;;;;;;20.77;13.82;;;;;;;;;;5041276;28;20029;-74
2022/12/09 07:24:01;;;;;;;22.73;13.70;;;;;;;;;;5049512;28;20058;-75
2022/12/09 07:26:33;;;;;;;22.58;14.07;;;;;;;;;;5041651;28;20014;-76
2022/12/09 07:29:18;;;;;;;22.05;12.63;;;;;;;;;;5030343;28;20063;-76
2022/12/09 07:31:46;;;;;;;18.67;12.75;;;;;;;;;;5042047;28;20079;-76
2022/12/09 07:34:16;;;;;;;16.55;11.93;;;;;;;;;;5056631;28;20032;-76
2022/12/09 07:36:43;;;;;;;19.88;12.30;;;;;;;;;;5042503;28;20028;-76
2022/12/09 07:39:23;;;;;;;19.85;12.38;;;;;;;;;;5058885;28;20052;-77
2022/12/09 07:41:55;;;;;;;16.60;11.82;;;;;;;;;;5018053;28;20022;-76
2022/12/09 07:44:21;;;;;;;19.98;12.48;;;;;;;;;;5025356;28;20032;-75
2022/12/09 07:46:47;;;;;;;17.88;12.18;;;;;;;;;;5024859;28;20042;-76
2022/12/09 07:49:13;;;;;;;17.27;12.25;;;;;;;;;;5032427;28;20031;-76
2022/12/09 07:51:39;;;;;;;17.50;11.93;;;;;;;;;;5038193;28;20013;-76
2022/12/09 07:54:05;;;;;;;19.85;13.30;;;;;;;;;;5030180;28;20026;-74
2022/12/09 07:56:32;;;;;;;23.10;14.18;;;;;;;;;;5044252;28;20082;-74
2022/12/09 07:59:00;;;;;;;19.30;11.98;;;;;;;;;;5050265;28;20017;-74
2022/12/09 08:01:28;;;;;;;20.52;12.35;;;;;;;;;;5035534;28;20028;-75
2022/12/09 08:03:54;;;;;;;21.35;12.25;;;;;;;;;;5039381;28;20021;-74
2022/12/09 08:06:21;;;;;;;22.48;13.82;;;;;;;;;;5026253;28;20372;-75
2022/12/09 08:08:47;;;;;;;23.27;13.98;;;;;;;;;;5044659;28;20036;-77
2022/12/09 08:11:18;;;;;;;24.17;13.20;;;;;;;;;;5052724;28;20021;-77
2022/12/09 08:13:44;;;;;;;22.67;13.23;;;;;;;;;;5035860;28;20037;-76
2022/12/09 08:16:11;;;;;;;23.92;13.15;;;;;;;;;;5027149;28;20484;-77
2022/12/09 08:18:37;;;;;;;25.48;15.50;;;;;;;;;;5044501;28;20029;-75
2022/12/09 08:21:05;;;;;;;26.30;14.48;;;;;;;;;;5040201;28;20028;-75
2022/12/09 08:23:31;;;;;;;28.60;15.30;;;;;;;;;;5036008;28;20483;-75
2022/12/09 08:25:57;;;;;;;27.23;15.50;;;;;;;;;;5047947;28;20025;-75
2022/12/09 08:28:23;;;;;;;25.70;16.10;;;;;;;;;;5041988;28;20014;-75
2022/12/09 08:30:49;;;;;;;26.92;15.30;;;;;;;;;;5053990;28;20028;-76
2022/12/09 08:33:16;;;;;;;25.25;15.65;;;;;;;;;;5037488;28;20298;-78
2022/12/09 08:35:42;;;;;;;28.52;16.48;;;;;;;;;;5051268;28;20020;-80
2022/12/09 08:38:08;;;;;;;27.02;15.93;;;;;;;;;;5051721;28;20184;-76
2022/12/09 08:40:34;;;;;;;32.05;17.95;;;;;;;;;;5050082;28;20040;-79
2022/12/09 08:43:02;;;;;;;29.40;17.05;;;;;;;;;;5047353;28;20021;-75
2022/12/09 08:45:28;;;;;;;29.80;17.35;;;;;;;;;;5058036;28;20033;-75
2022/12/09 08:47:54;;;;;;;31.52;17.50;;;;;;;;;;5053494;28;20505;-78
2022/12/09 08:50:20;;;;;;;31.98;17.27;;;;;;;;;;5052431;28;20013;-76
2022/12/09 08:52:46;;;;;;;28.35;17.80;;;;;;;;;;5041218;28;20082;-75
2022/12/09 08:55:12;;;;;;;30.75;17.83;;;;;;;;;;5048926;28;20432;-79
2022/12/09 08:57:38;;;;;;;29.40;17.35;;;;;;;;;;5036692;28;20033;-75
2022/12/09 09:00:04;;;;;;;29.08;17.63;;;;;;;;;;5047149;28;20392;-76
2022/12/09 09:02:34;;;;;;;29.08;17.95;;;;;;;;;;5043739;28;20037;-77
2022/12/09 09:05:00;;;;;;;28.88;17.70;;;;;;;;;;5039668;28;20025;-76
2022/12/09 09:07:26;;;;;;;33.80;18.67;;;;;;;;;;5050728;28;20443;-76
2022/12/09 09:09:52;;;;;;;31.80;17.77;;;;;;;;;;5038373;28;20092;-76
2022/12/09 09:12:18;;;;;;;33.38;19.08;;;;;;;;;;5045369;28;20017;-76
2022/12/09 09:14:44;;;;;;;27.50;16.85;;;;;;;;;;5033272;28;20057;-74
2022/12/09 09:17:10;;;;;;;26.63;15.90;;;;;;;;;;5033273;28;20025;-76
2022/12/09 09:19:36;;;;;;;32.90;18.33;;;;;;;;;;5051969;28;20040;-75
2022/12/09 09:22:02;;;;;;;37.30;18.95;;;;;;;;;;5053640;28;20029;-76
2022/12/09 09:24:28;;;;;;;32.13;18.30;;;;;;;;;;5043462;28;20076;-74
2022/12/09 09:26:55;;;;;;;35.40;20.38;;;;;;;;;;5028002;28;20021;-76
2022/12/09 09:29:22;;;;;;;37.05;21.13;;;;;;;;;;5034831;28;20021;-76
2022/12/09 09:31:48;;;;;;;32.78;18.85;;;;;;;;;;5048467;28;20025;-76
2022/12/09 09:34:16;;;;;;;35.60;19.42;;;;;;;;;;5032749;28;20594;-75
2022/12/09 09:36:42;;;;;;;29.98;17.63;;;;;;;;;;5044162;28;20467;-76
2022/12/09 09:39:08;;;;;;;35.92;19.35;;;;;;;;;;5036916;28;20540;-76
2022/12/09 09:41:53;;;;;;;32.40;19.20;;;;;;;;;;5051006;28;20032;-74
2022/12/09 09:44:24;;;;;;;31.77;18.23;;;;;;;;;;5043982;28;20051;-76
2022/12/09 09:46:51;;;;;;;31.50;18.73;;;;;;;;;;5032491;28;20030;-74
2022/12/09 09:49:36;;;;;;;31.75;18.52;;;;;;;;;;5032236;28;20029;-77
2022/12/09 09:52:05;;;;;;;31.13;17.48;;;;;;;;;;5038418;28;20070;-75
2022/12/09 09:54:31;;;;;;;34.40;18.98;;;;;;;;;;5042239;28;20030;-75
2022/12/09 09:57:04;;;;;;;32.17;18.80;;;;;;;;;;5045813;28;20033;-76
2022/12/09 09:59:30;;;;;;;31.95;17.95;;;;;;;;;;5052152;28;20063;-76
2022/12/09 10:02:12;;;;;;;32.67;17.50;;;;;;;;;;5046446;28;20116;-76
2022/12/09 10:04:44;;;;;;;34.95;19.95;;;;;;;;;;5032493;28;20033;-79
2022/12/09 10:07:17;;;;;;;33.85;19.45;;;;;;;;;;5032301;28;20028;-74
2022/12/09 10:09:43;;;;;;;35.95;19.25;;;;;;;;;;5052375;28;20028;-74
2022/12/09 10:12:19;;;;;;;34.67;18.63;;;;;;;;;;5052284;28;20021;-74
2022/12/09 10:14:52;;;;;;;32.60;18.38;;;;;;;;;;5039899;28;20025;-74
2022/12/09 10:17:18;;;;;;;33.00;17.67;;;;;;;;;;5048307;28;20025;-77
2022/12/09 10:19:49;;;;;;;28.48;18.17;;;;;;;;;;5052104;28;20031;-75
2022/12/09 10:22:19;;;;;;;27.92;16.33;;;;;;;;;;5052226;28;20036;-74
2022/12/09 10:24:47;;;;;;;29.67;17.13;;;;;;;;;;5039583;28;20160;-74
2022/12/09 10:27:17;;;;;;;31.63;16.95;;;;;;;;;;5031420;28;20032;-75
2022/12/09 10:29:46;;;;;;;25.53;16.93;;;;;;;;;;5044703;28;20032;-78
2022/12/09 10:32:15;;;;;;;29.17;18.08;;;;;;;;;;5040728;28;20394;-76
2022/12/09 10:34:41;;;;;;;28.67;17.10;;;;;;;;;;5041546;28;20063;-77
2022/12/09 10:37:14;;;;;;;29.92;17.88;;;;;;;;;;5049650;28;20028;-73
2022/12/09 10:39:40;;;;;;;33.85;18.75;;;;;;;;;;5033065;28;20478;-77
2022/12/09 10:45:03;;;;;;;27.55;17.02;;;;;;;;;;5042796;28;20083;-75
2022/12/09 10:47:30;;;;;;;28.52;17.42;;;;;;;;;;5034497;28;20032;-76
2022/12/09 10:49:58;;;;;;;26.10;16.45;;;;;;;;;;5045933;28;20092;-76
2022/12/09 10:52:25;;;;;;;30.67;18.73;;;;;;;;;;5040748;28;20028;-74
2022/12/09 10:54:51;;;;;;;29.02;16.63;;;;;;;;;;5044821;28;20204;-75
2022/12/09 10:57:17;;;;;;;28.00;17.13;;;;;;;;;;5034705;28;20030;-75
2022/12/09 10:59:59;;;;;;;26.38;15.60;;;;;;;;;;5046976;28;20025;-69
2022/12/09 11:02:25;;;;;;;27.08;15.80;;;;;;;;;;5050922;28;20092;-68
2022/12/09 11:04:51;;;;;;;29.00;16.95;;;;;;;;;;5038309;28;20080;-69
2022/12/09 11:07:24;;;;;;;28.48;17.00;;;;;;;;;;5047359;28;20025;-69
2022/12/09 11:09:54;;;;;;;27.70;17.30;;;;;;;;;;5035821;28;20027;-72
2022/12/09 11:12:25;;;;;;;27.77;16.70;;;;;;;;;;5025266;28;20467;-74
2022/12/09 11:14:51;;;;;;;;;;;;;;;;;;5030334;28;20025;-76
2022/12/09 11:17:19;;;;;;;27.80;17.50;;;;;;;;;;5039229;28;19911;-73
2022/12/09 11:19:49;;;;;;;26.15;16.08;;;;;;;;;;5036385;28;20060;-74
2022/12/09 11:22:28;;;;;;;30.20;17.75;;;;;;;;;;5048774;28;20029;-77
2022/12/09 11:24:55;;;;;;;30.88;17.40;;;;;;;;;;5043365;28;20021;-76
2022/12/09 11:27:27;;;;;;;27.50;17.75;;;;;;;;;;5055210;28;20037;-75
2022/12/09 11:30:04;;;;;;;28.85;17.48;;;;;;;;;;5034026;28;20013;-75
2022/12/09 11:32:30;;;;;;;26.42;17.25;;;;;;;;;;5038466;28;20025;-75
2022/12/09 11:34:56;;;;;;;33.10;17.33;;;;;;;;;;5046330;28;20052;-77
2022/12/09 11:37:29;;;;;;;26.58;17.05;;;;;;;;;;5053930;28;20032;-75
2022/12/09 11:39:55;;;;;;;30.40;17.58;;;;;;;;;;5053556;28;20025;-75
2022/12/09 11:42:22;;;;;;;28.42;17.35;;;;;;;;;;5057307;28;20039;-75
2022/12/09 11:44:51;;;;;;;32.50;16.95;;;;;;;;;;5061813;28;20150;-77
2022/12/09 11:47:29;;;;;;;29.55;17.85;;;;;;;;;;5069625;28;20490;-76
2022/12/09 11:50:15;;;;;;;33.50;17.60;;;;;;;;;;5068970;28;20024;-77
2022/12/09 11:52:43;;;;;;;33.28;19.25;;;;;;;;;;5050160;28;20031;-76
2022/12/09 11:56:04;;;;;;;33.90;19.30;;;;;;;;;;5039800;28;20029;-76
2022/12/09 11:59:16;;;;;;;;;;;;;;;;;;;;;
2022/12/09 12:01:48;;;;;;;31.27;19.13;;;;;;;;;;4988369;28;20032;-76
2022/12/09 12:10:16;;;;;;;26.52;16.70;;;;;;;;;;5333612;22;20040;-79
2022/12/09 12:16:25;;;;;;;;;;;;;;;;;;;;;
2022/12/09 12:19:10;;;;;;;34.95;18.80;;;;;;;;;;5071080;28;20051;-75
2022/12/09 12:21:42;;;;;;;38.05;18.05;;;;;;;;;;5090925;28;20017;-74
2022/12/09 12:24:34;;;;;;;28.42;17.10;;;;;;;;;;5081675;28;20043;-80
2022/12/09 12:37:12;;;;;;;;;;;;;;;;;;;;;
2022/12/09 12:39:57;;;;;;;31.38;16.42;;;;;;;;;;4968259;28;20050;-77
2022/12/09 12:42:24;;;;;;;27.95;16.42;;;;;;;;;;4972194;28;20117;-75
2022/12/09 13:00:09;;;;;;;25.23;14.65;;;;;;;;;;5034226;28;20032;-74
2022/12/09 13:03:11;;;;;;;25.63;15.30;;;;;;;;;;4976850;28;20030;-76
2022/12/09 13:08:28;;;;;;;29.02;15.30;;;;;;;;;;5050216;23;20141;-76
2022/12/09 13:11:18;;;;;;;28.90;16.42;;;;;;;;;;5027067;28;20017;-75
2022/12/09 13:13:55;;;;;;;22.67;13.60;;;;;;;;;;5001151;28;20024;-74
2022/12/09 13:16:29;;;;;;;31.00;17.25;;;;;;;;;;5024647;28;20026;-75
2022/12/09 13:19:15;;;;;;;;;;;;;;;;;;;;;
2022/12/09 13:21:44;;;;;;;28.13;16.17;;;;;;;;;;4997757;28;20040;-76
2022/12/09 13:24:25;;;;;;;26.65;16.50;;;;;;;;;;5033193;28;20036;-74
2022/12/09 13:26:54;;;;;;;28.30;16.88;;;;;;;;;;5020593;28;20121;-75
2022/12/09 13:29:20;;;;;;;28.15;16.13;;;;;;;;;;4995807;28;20085;-75
2022/12/09 13:32:12;;;;;;;26.52;16.20;;;;;;;;;;5032172;28;20028;-74
2022/12/09 13:34:48;;;;;;;29.45;16.17;;;;;;;;;;5022118;28;20109;-74
2022/12/09 13:37:30;;;;;;;32.55;17.70;;;;;;;;;;5028800;28;20025;-74
2022/12/09 13:39:57;;;;;;;;;;;;;;;;;;5006262;28;20088;-74
2022/12/09 13:43:08;;;;;;;28.38;16.40;;;;;;;;;;5025627;28;19972;-74
2022/12/09 13:45:28;;;;;;;27.73;15.75;;;;;;;;;;5017648;28;20037;-76
2022/12/09 13:47:59;;;;;;;27.60;17.52;;;;;;;;;;4995163;28;20192;-75
2022/12/09 13:50:31;;;;;;;30.48;16.45;;;;;;;;;;5012405;28;20014;-75
2022/12/09 13:53:02;;;;;;;30.50;17.83;;;;;;;;;;5034347;28;20026;-74
2022/12/09 13:55:30;;;;;;;26.38;16.15;;;;;;;;;;5037566;28;20029;-75
2022/12/09 13:58:08;;;;;;;30.25;16.67;;;;;;;;;;5024460;28;20104;-76
2022/12/09 14:00:35;;;;;;;26.92;15.40;;;;;;;;;;5031608;28;20033;-75
2022/12/09 14:03:04;;;;;;;25.40;17.27;;;;;;;;;;5028626;28;20026;-77
2022/12/09 14:05:34;;;;;;;25.67;16.10;;;;;;;;;;5036491;28;20018;-77
2022/12/09 14:08:05;;;;;;;32.40;18.05;;;;;;;;;;5023825;28;20384;-78
2022/12/09 14:10:36;;;;;;;27.05;17.10;;;;;;;;;;5035145;28;20041;-77
2022/12/09 14:13:04;;;;;;;30.70;18.42;;;;;;;;;;5037260;28;20018;-76
2022/12/09 14:15:30;;;;;;;32.30;17.75;;;;;;;;;;5019337;28;20105;-75
2022/12/09 14:18:00;;;;;;;27.50;17.23;;;;;;;;;;5028777;28;20053;-74
2022/12/09 14:20:30;;;;;;;32.80;18.80;;;;;;;;;;5006919;28;20540;-75
2022/12/09 14:23:06;;;;;;;21.85;13.07;;;;;;;;;;5036188;28;20510;-75
2022/12/09 14:25:34;;;;;;;28.30;17.05;;;;;;;;;;5017747;28;20030;-74
2022/12/09 14:28:09;;;;;;;29.30;17.13;;;;;;;;;;5030069;28;20387;-74
2022/12/09 14:30:35;;;;;;;26.58;16.60;;;;;;;;;;5015228;28;20042;-74
2022/12/09 14:33:02;;;;;;;27.85;17.30;;;;;;;;;;5013111;28;20360;-74
2022/12/09 14:35:45;;;;;;;36.03;18.85;;;;;;;;;;5029623;28;20029;-74
2022/12/09 14:38:26;;;;;;;31.85;19.55;;;;;;;;;;5003448;28;20037;-74
2022/12/09 14:41:11;;;;;;;30.30;19.63;;;;;;;;;;5032755;28;20121;-74
2022/12/09 14:43:54;;;;;;;32.28;18.67;;;;;;;;;;5022501;28;20038;-75
2022/12/09 14:46:23;;;;;;;34.65;20.10;;;;;;;;;;5014556;28;20038;-74
2022/12/09 14:48:52;;;;;;;35.00;19.67;;;;;;;;;;5026336;28;20084;-73
2022/12/09 14:51:21;;;;;;;30.52;18.52;;;;;;;;;;5016520;28;20026;-74
2022/12/09 14:53:55;;;;;;;30.15;18.50;;;;;;;;;;5020171;28;20033;-76
2022/12/09 14:56:23;;;;;;;30.08;18.95;;;;;;;;;;5033923;28;20052;-74
2022/12/09 14:58:50;;;;;;;34.40;19.63;;;;;;;;;;5024280;28;20060;-75
2022/12/09 15:01:19;;;;;;;33.70;18.92;;;;;;;;;;5016692;28;20101;-75
2022/12/09 15:03:55;;;;;;;32.92;18.33;;;;;;;;;;5018870;28;20029;-74
2022/12/09 15:06:25;;;;;;;33.95;19.08;;;;;;;;;;5018879;28;20108;-76
2022/12/09 15:08:53;;;;;;;31.25;18.67;;;;;;;;;;5018692;28;20079;-75
2022/12/09 15:11:21;;;;;;;29.63;18.77;;;;;;;;;;5034883;28;20022;-75
2022/12/09 15:13:49;;;;;;;36.10;19.75;;;;;;;;;;5016291;28;20109;-75
2022/12/09 15:16:16;;;;;;;31.55;19.30;;;;;;;;;;5027103;28;20036;-74
2022/12/09 15:18:44;;;;;;;33.45;19.35;;;;;;;;;;5019351;28;20464;-75
2022/12/09 15:21:10;;;;;;;31.58;20.27;;;;;;;;;;5017909;28;20030;-74
2022/12/09 15:23:38;;;;;;;33.35;20.05;;;;;;;;;;5021047;28;20392;-72